sensor_id;sensor_type;location;lat;lon;timestamp;temperature;humidity
77985;DHT22;67177;47.240;-1.546;2024-01-15T00:02:09;4.80;74.40
77985;DHT22;67177;47.240;-1.546;2024-01-15T00:04:38;4.80;74.50
77985;DHT22;67177;47.240;-1.546;2024-01-15T00:07:05;4.70;74.60
77985;DHT22;67177;47.240;-1.546;2024-01-15T00:09:30;4.80;74.50
77985;DHT22;67177;47.240;-1.546;2024-01-15T00:11:56;4.80;74.40
77985;DHT22;67177;47.240;-1.546;2024-01-15T00:14:22;4.80;74.60
77985;DHT22;67177;47.240;-1.546;2024-01-15T00:16:48;4.80;74.50
77985;DHT22;67177;47.240;-1.546;2024-01-15T00:19:19;4.80;74.50
77985;DHT22;67177;47.240;-1.546;2024-01-15T00:21:45;4.80;74.50
77985;DHT22;67177;47.240;-1.546;2024-01-15T00:24:11;4.80;74.70
77985;DHT22;67177;47.240;-1.546;2024-01-15T00:26:37;4.80;74.80
77985;DHT22;67177;47.240;-1.546;2024-01-15T00:29:03;4.80;74.80
77985;DHT22;67177;47.240;-1.546;2024-01-15T00:31:29;4.70;74.90
77985;DHT22;67177;47.240;-1.546;2024-01-15T00:33:58;4.70;74.90
77985;DHT22;67177;47.240;-1.546;2024-01-15T00:36:23;4.70;75.00
77985;DHT22;67177;47.240;-1.546;2024-01-15T00:38:49;4.70;75.10
77985;DHT22;67177;47.240;-1.546;2024-01-15T00:41:15;4.70;75.10
77985;DHT22;67177;47.240;-1.546;2024-01-15T00:43:41;4.80;75.00
77985;DHT22;67177;47.240;-1.546;2024-01-15T00:46:06;4.80;74.90
77985;DHT22;67177;47.240;-1.546;2024-01-15T00:48:32;4.80;75.00
77985;DHT22;67177;47.240;-1.546;2024-01-15T00:50:58;4.80;75.00
77985;DHT22;67177;47.240;-1.546;2024-01-15T00:53:25;4.80;75.00
77985;DHT22;67177;47.240;-1.546;2024-01-15T00:55:51;4.80;75.00
77985;DHT22;67177;47.240;-1.546;2024-01-15T00:58:16;4.80;75.00
77985;DHT22;67177;47.240;-1.546;2024-01-15T01:00:42;4.80;75.10
77985;DHT22;67177;47.240;-1.546;2024-01-15T01:03:08;4.80;75.10
77985;DHT22;67177;47.240;-1.546;2024-01-15T01:05:34;4.80;75.20
77985;DHT22;67177;47.240;-1.546;2024-01-15T01:08:00;4.80;75.20
77985;DHT22;67177;47.240;-1.546;2024-01-15T01:10:25;4.90;75.10
77985;DHT22;67177;47.240;-1.546;2024-01-15T01:12:52;4.90;75.00
77985;DHT22;67177;47.240;-1.546;2024-01-15T01:15:17;4.80;75.10
77985;DHT22;67177;47.240;-1.546;2024-01-15T01:17:43;4.80;75.30
77985;DHT22;67177;47.240;-1.546;2024-01-15T01:20:09;4.80;75.40
77985;DHT22;67177;47.240;-1.546;2024-01-15T01:22:36;4.80;75.50
77985;DHT22;67177;47.240;-1.546;2024-01-15T01:25:01;4.80;75.60
77985;DHT22;67177;47.240;-1.546;2024-01-15T01:27:27;4.80;75.50
77985;DHT22;67177;47.240;-1.546;2024-01-15T01:29:53;4.80;75.50
77985;DHT22;67177;47.240;-1.546;2024-01-15T01:32:19;4.80;75.50
77985;DHT22;67177;47.240;-1.546;2024-01-15T01:34:45;4.80;75.50
77985;DHT22;67177;47.240;-1.546;2024-01-15T01:37:11;4.80;75.70
77985;DHT22;67177;47.240;-1.546;2024-01-15T01:39:41;4.80;75.70
77985;DHT22;67177;47.240;-1.546;2024-01-15T01:42:07;4.80;75.70
77985;DHT22;67177;47.240;-1.546;2024-01-15T01:44:33;4.80;75.70
77985;DHT22;67177;47.240;-1.546;2024-01-15T01:46:59;4.80;75.60
77985;DHT22;67177;47.240;-1.546;2024-01-15T01:49:27;4.80;75.50
77985;DHT22;67177;47.240;-1.546;2024-01-15T01:51:53;4.90;75.40
77985;DHT22;67177;47.240;-1.546;2024-01-15T01:54:20;4.90;75.30
77985;DHT22;67177;47.240;-1.546;2024-01-15T01:56:47;4.80;75.50
77985;DHT22;67177;47.240;-1.546;2024-01-15T01:59:13;4.80;75.60
77985;DHT22;67177;47.240;-1.546;2024-01-15T02:01:41;4.80;75.70
77985;DHT22;67177;47.240;-1.546;2024-01-15T02:04:07;4.90;75.40
77985;DHT22;67177;47.240;-1.546;2024-01-15T02:06:33;4.90;75.40
77985;DHT22;67177;47.240;-1.546;2024-01-15T02:08:59;4.90;75.60
77985;DHT22;67177;47.240;-1.546;2024-01-15T02:11:25;4.90;75.60
77985;DHT22;67177;47.240;-1.546;2024-01-15T02:13:50;4.90;75.60
77985;DHT22;67177;47.240;-1.546;2024-01-15T02:16:16;4.90;75.70
77985;DHT22;67177;47.240;-1.546;2024-01-15T02:18:44;4.80;75.80
77985;DHT22;67177;47.240;-1.546;2024-01-15T02:21:10;4.80;75.90
77985;DHT22;67177;47.240;-1.546;2024-01-15T02:23:36;4.70;76.00
77985;DHT22;67177;47.240;-1.546;2024-01-15T02:26:03;4.70;76.00
77985;DHT22;67177;47.240;-1.546;2024-01-15T02:28:29;4.80;75.80
77985;DHT22;67177;47.240;-1.546;2024-01-15T02:30:55;4.80;75.80
77985;DHT22;67177;47.240;-1.546;2024-01-15T02:33:21;4.70;76.00
77985;DHT22;67177;47.240;-1.546;2024-01-15T02:35:46;4.80;76.00
77985;DHT22;67177;47.240;-1.546;2024-01-15T02:38:15;4.80;76.10
77985;DHT22;67177;47.240;-1.546;2024-01-15T02:40:41;4.80;76.10
77985;DHT22;67177;47.240;-1.546;2024-01-15T02:43:07;4.80;76.00
77985;DHT22;67177;47.240;-1.546;2024-01-15T02:45:32;4.80;75.70
77985;DHT22;67177;47.240;-1.546;2024-01-15T02:47:58;4.80;75.60
77985;DHT22;67177;47.240;-1.546;2024-01-15T02:50:24;4.80;75.70
77985;DHT22;67177;47.240;-1.546;2024-01-15T02:52:49;4.80;75.90
77985;DHT22;67177;47.240;-1.546;2024-01-15T02:55:15;4.80;76.00
77985;DHT22;67177;47.240;-1.546;2024-01-15T02:57:40;4.80;76.00
77985;DHT22;67177;47.240;-1.546;2024-01-15T03:00:06;4.80;76.10
77985;DHT22;67177;47.240;-1.546;2024-01-15T03:02:35;4.80;76.20
77985;DHT22;67177;47.240;-1.546;2024-01-15T03:05:01;4.70;76.20
77985;DHT22;67177;47.240;-1.546;2024-01-15T03:07:28;4.70;76.40
77985;DHT22;67177;47.240;-1.546;2024-01-15T03:09:54;4.80;76.40
77985;DHT22;67177;47.240;-1.546;2024-01-15T03:12:19;4.70;76.50
77985;DHT22;67177;47.240;-1.546;2024-01-15T03:14:45;4.80;76.50
77985;DHT22;67177;47.240;-1.546;2024-01-15T03:17:10;4.80;76.50
77985;DHT22;67177;47.240;-1.546;2024-01-15T03:19:37;4.80;76.60
77985;DHT22;67177;47.240;-1.546;2024-01-15T03:22:03;4.80;76.60
77985;DHT22;67177;47.240;-1.546;2024-01-15T03:24:29;4.80;76.50
77985;DHT22;67177;47.240;-1.546;2024-01-15T03:26:55;4.70;76.50
77985;DHT22;67177;47.240;-1.546;2024-01-15T03:29:21;4.80;76.60
77985;DHT22;67177;47.240;-1.546;2024-01-15T03:31:47;4.70;76.60
77985;DHT22;67177;47.240;-1.546;2024-01-15T03:34:12;4.80;76.60
77985;DHT22;67177;47.240;-1.546;2024-01-15T03:36:38;4.80;76.50
77985;DHT22;67177;47.240;-1.546;2024-01-15T03:39:04;4.80;76.30
77985;DHT22;67177;47.240;-1.546;2024-01-15T03:41:29;4.80;76.20
77985;DHT22;67177;47.240;-1.546;2024-01-15T03:43:55;4.80;76.10
77985;DHT22;67177;47.240;-1.546;2024-01-15T03:46:20;4.80;76.30
77985;DHT22;67177;47.240;-1.546;2024-01-15T03:48:46;4.70;76.60
77985;DHT22;67177;47.240;-1.546;2024-01-15T03:51:12;4.70;77.00
77985;DHT22;67177;47.240;-1.546;2024-01-15T03:53:38;4.60;77.30
77985;DHT22;67177;47.240;-1.546;2024-01-15T03:56:04;4.70;77.30
77985;DHT22;67177;47.240;-1.546;2024-01-15T03:58:30;4.70;77.30
77985;DHT22;67177;47.240;-1.546;2024-01-15T04:00:55;4.70;77.20
77985;DHT22;67177;47.240;-1.546;2024-01-15T04:03:21;4.70;77.30
77985;DHT22;67177;47.240;-1.546;2024-01-15T04:05:47;4.70;77.40
77985;DHT22;67177;47.240;-1.546;2024-01-15T04:08:12;4.70;77.30
77985;DHT22;67177;47.240;-1.546;2024-01-15T04:10:38;4.70;77.20
77985;DHT22;67177;47.240;-1.546;2024-01-15T04:13:03;4.60;77.50
77985;DHT22;67177;47.240;-1.546;2024-01-15T04:15:29;4.70;77.40
77985;DHT22;67177;47.240;-1.546;2024-01-15T04:17:55;4.70;77.40
77985;DHT22;67177;47.240;-1.546;2024-01-15T04:20:20;4.80;77.20
77985;DHT22;67177;47.240;-1.546;2024-01-15T04:22:46;4.80;77.20
77985;DHT22;67177;47.240;-1.546;2024-01-15T04:25:11;4.80;77.20
77985;DHT22;67177;47.240;-1.546;2024-01-15T04:27:37;4.80;77.20
77985;DHT22;67177;47.240;-1.546;2024-01-15T04:30:03;4.80;77.10
77985;DHT22;67177;47.240;-1.546;2024-01-15T04:32:29;4.80;77.10
77985;DHT22;67177;47.240;-1.546;2024-01-15T04:34:55;4.80;77.20
77985;DHT22;67177;47.240;-1.546;2024-01-15T04:37:20;4.80;77.10
77985;DHT22;67177;47.240;-1.546;2024-01-15T04:39:46;4.80;77.10
77985;DHT22;67177;47.240;-1.546;2024-01-15T04:42:11;4.90;76.90
77985;DHT22;67177;47.240;-1.546;2024-01-15T04:44:37;4.90;76.90
77985;DHT22;67177;47.240;-1.546;2024-01-15T04:47:03;4.90;76.60
77985;DHT22;67177;47.240;-1.546;2024-01-15T04:49:28;4.90;76.60
77985;DHT22;67177;47.240;-1.546;2024-01-15T04:51:55;4.90;76.50
77985;DHT22;67177;47.240;-1.546;2024-01-15T04:54:21;4.90;76.50
77985;DHT22;67177;47.240;-1.546;2024-01-15T04:56:46;4.80;76.40
77985;DHT22;67177;47.240;-1.546;2024-01-15T04:59:13;4.90;76.50
77985;DHT22;67177;47.240;-1.546;2024-01-15T05:01:39;4.80;76.70
77985;DHT22;67177;47.240;-1.546;2024-01-15T05:04:05;4.80;76.80
77985;DHT22;67177;47.240;-1.546;2024-01-15T05:06:31;4.80;77.00
77985;DHT22;67177;47.240;-1.546;2024-01-15T05:08:57;4.80;76.90
77985;DHT22;67177;47.240;-1.546;2024-01-15T05:11:22;4.80;76.90
77985;DHT22;67177;47.240;-1.546;2024-01-15T05:13:48;4.80;76.80
77985;DHT22;67177;47.240;-1.546;2024-01-15T05:16:14;4.80;76.70
77985;DHT22;67177;47.240;-1.546;2024-01-15T05:18:39;4.80;76.70
77985;DHT22;67177;47.240;-1.546;2024-01-15T05:21:05;4.80;76.80
77985;DHT22;67177;47.240;-1.546;2024-01-15T05:23:34;4.80;76.90
77985;DHT22;67177;47.240;-1.546;2024-01-15T05:26:00;4.80;76.80
77985;DHT22;67177;47.240;-1.546;2024-01-15T05:28:25;4.80;76.80
77985;DHT22;67177;47.240;-1.546;2024-01-15T05:30:51;4.80;76.80
77985;DHT22;67177;47.240;-1.546;2024-01-15T05:33:17;4.70;77.00
77985;DHT22;67177;47.240;-1.546;2024-01-15T05:35:43;4.60;77.00
77985;DHT22;67177;47.240;-1.546;2024-01-15T05:38:09;4.70;77.10
77985;DHT22;67177;47.240;-1.546;2024-01-15T05:40:34;4.70;77.20
77985;DHT22;67177;47.240;-1.546;2024-01-15T05:43:00;4.70;77.10
77985;DHT22;67177;47.240;-1.546;2024-01-15T05:45:30;4.70;77.00
77985;DHT22;67177;47.240;-1.546;2024-01-15T05:47:55;4.60;77.30
77985;DHT22;67177;47.240;-1.546;2024-01-15T05:50:21;4.60;77.50
77985;DHT22;67177;47.240;-1.546;2024-01-15T05:52:47;4.60;77.50
77985;DHT22;67177;47.240;-1.546;2024-01-15T05:55:13;4.60;77.60
77985;DHT22;67177;47.240;-1.546;2024-01-15T05:57:39;4.60;77.50
77985;DHT22;67177;47.240;-1.546;2024-01-15T06:00:05;4.60;77.40
77985;DHT22;67177;47.240;-1.546;2024-01-15T06:02:31;4.60;77.50
77985;DHT22;67177;47.240;-1.546;2024-01-15T06:04:57;4.50;77.70
77985;DHT22;67177;47.240;-1.546;2024-01-15T06:07:23;4.50;77.60
77985;DHT22;67177;47.240;-1.546;2024-01-15T06:09:49;4.60;77.50
77985;DHT22;67177;47.240;-1.546;2024-01-15T06:12:14;4.60;77.60
77985;DHT22;67177;47.240;-1.546;2024-01-15T06:14:40;4.60;77.50
77985;DHT22;67177;47.240;-1.546;2024-01-15T06:17:07;4.70;77.60
77985;DHT22;67177;47.240;-1.546;2024-01-15T06:19:32;4.70;77.40
77985;DHT22;67177;47.240;-1.546;2024-01-15T06:21:58;4.70;77.20
77985;DHT22;67177;47.240;-1.546;2024-01-15T06:24:24;4.70;77.30
77985;DHT22;67177;47.240;-1.546;2024-01-15T06:26:49;4.60;77.40
77985;DHT22;67177;47.240;-1.546;2024-01-15T06:29:15;4.60;77.30
77985;DHT22;67177;47.240;-1.546;2024-01-15T06:31:41;4.50;77.70
77985;DHT22;67177;47.240;-1.546;2024-01-15T06:34:06;4.50;77.80
77985;DHT22;67177;47.240;-1.546;2024-01-15T06:36:32;4.50;77.90
77985;DHT22;67177;47.240;-1.546;2024-01-15T06:38:58;4.50;78.00
77985;DHT22;67177;47.240;-1.546;2024-01-15T06:41:23;4.50;77.90
77985;DHT22;67177;47.240;-1.546;2024-01-15T06:43:51;4.50;77.60
77985;DHT22;67177;47.240;-1.546;2024-01-15T06:46:20;4.50;77.90
77985;DHT22;67177;47.240;-1.546;2024-01-15T06:48:46;4.50;78.00
77985;DHT22;67177;47.240;-1.546;2024-01-15T06:51:12;4.40;78.10
77985;DHT22;67177;47.240;-1.546;2024-01-15T06:53:37;4.40;78.20
77985;DHT22;67177;47.240;-1.546;2024-01-15T06:56:03;4.30;78.30
77985;DHT22;67177;47.240;-1.546;2024-01-15T06:58:31;4.30;78.40
77985;DHT22;67177;47.240;-1.546;2024-01-15T07:00:57;4.40;78.40
77985;DHT22;67177;47.240;-1.546;2024-01-15T07:03:23;4.40;78.40
77985;DHT22;67177;47.240;-1.546;2024-01-15T07:05:49;4.40;78.40
77985;DHT22;67177;47.240;-1.546;2024-01-15T07:08:14;4.40;78.30
77985;DHT22;67177;47.240;-1.546;2024-01-15T07:10:40;4.40;78.20
77985;DHT22;67177;47.240;-1.546;2024-01-15T07:13:06;4.40;78.10
77985;DHT22;67177;47.240;-1.546;2024-01-15T07:15:31;4.50;78.10
77985;DHT22;67177;47.240;-1.546;2024-01-15T07:17:57;4.50;78.10
77985;DHT22;67177;47.240;-1.546;2024-01-15T07:20:22;4.50;78.20
77985;DHT22;67177;47.240;-1.546;2024-01-15T07:22:48;4.50;78.00
77985;DHT22;67177;47.240;-1.546;2024-01-15T07:25:15;4.60;78.00
77985;DHT22;67177;47.240;-1.546;2024-01-15T07:27:41;4.60;78.10
77985;DHT22;67177;47.240;-1.546;2024-01-15T07:30:10;4.60;78.00
77985;DHT22;67177;47.240;-1.546;2024-01-15T07:32:36;4.60;78.20
77985;DHT22;67177;47.240;-1.546;2024-01-15T07:35:02;4.60;78.10
77985;DHT22;67177;47.240;-1.546;2024-01-15T07:37:27;4.70;78.10
77985;DHT22;67177;47.240;-1.546;2024-01-15T07:39:53;4.70;78.00
77985;DHT22;67177;47.240;-1.546;2024-01-15T07:42:19;4.70;77.90
77985;DHT22;67177;47.240;-1.546;2024-01-15T07:44:45;4.70;77.80
77985;DHT22;67177;47.240;-1.546;2024-01-15T07:47:10;4.80;77.70
77985;DHT22;67177;47.240;-1.546;2024-01-15T07:49:36;4.80;77.80
77985;DHT22;67177;47.240;-1.546;2024-01-15T07:52:01;4.70;77.70
77985;DHT22;67177;47.240;-1.546;2024-01-15T07:54:27;4.70;77.80
77985;DHT22;67177;47.240;-1.546;2024-01-15T07:56:57;4.70;77.60
77985;DHT22;67177;47.240;-1.546;2024-01-15T07:59:23;4.70;77.50
77985;DHT22;67177;47.240;-1.546;2024-01-15T08:01:49;4.80;77.50
77985;DHT22;67177;47.240;-1.546;2024-01-15T08:04:15;4.80;77.30
77985;DHT22;67177;47.240;-1.546;2024-01-15T08:06:41;4.70;77.10
77985;DHT22;67177;47.240;-1.546;2024-01-15T08:09:06;4.70;77.30
77985;DHT22;67177;47.240;-1.546;2024-01-15T08:11:34;4.70;77.10
77985;DHT22;67177;47.240;-1.546;2024-01-15T08:13:59;4.70;77.10
77985;DHT22;67177;47.240;-1.546;2024-01-15T08:16:25;4.80;77.00
77985;DHT22;67177;47.240;-1.546;2024-01-15T08:18:51;4.80;76.90
77985;DHT22;67177;47.240;-1.546;2024-01-15T08:21:16;4.80;77.00
77985;DHT22;67177;47.240;-1.546;2024-01-15T08:23:42;4.80;77.10
77985;DHT22;67177;47.240;-1.546;2024-01-15T08:26:08;4.90;77.20
77985;DHT22;67177;47.240;-1.546;2024-01-15T08:28:34;4.90;77.20
77985;DHT22;67177;47.240;-1.546;2024-01-15T08:31:00;4.90;77.30
77985;DHT22;67177;47.240;-1.546;2024-01-15T08:33:25;4.90;77.20
77985;DHT22;67177;47.240;-1.546;2024-01-15T08:35:51;4.90;77.20
77985;DHT22;67177;47.240;-1.546;2024-01-15T08:38:16;4.90;77.10
77985;DHT22;67177;47.240;-1.546;2024-01-15T08:40:42;5.00;77.00
77985;DHT22;67177;47.240;-1.546;2024-01-15T08:43:08;5.10;76.90
77985;DHT22;67177;47.240;-1.546;2024-01-15T08:45:33;5.00;76.90
77985;DHT22;67177;47.240;-1.546;2024-01-15T08:47:59;5.00;77.00
77985;DHT22;67177;47.240;-1.546;2024-01-15T08:50:25;5.00;76.90
77985;DHT22;67177;47.240;-1.546;2024-01-15T08:52:50;5.10;76.70
77985;DHT22;67177;47.240;-1.546;2024-01-15T08:55:16;5.10;76.60
77985;DHT22;67177;47.240;-1.546;2024-01-15T08:57:42;5.10;76.70
77985;DHT22;67177;47.240;-1.546;2024-01-15T09:00:09;5.10;76.70
77985;DHT22;67177;47.240;-1.546;2024-01-15T09:02:34;5.20;76.60
77985;DHT22;67177;47.240;-1.546;2024-01-15T09:05:01;5.20;76.40
77985;DHT22;67177;47.240;-1.546;2024-01-15T09:07:27;5.30;76.30
77985;DHT22;67177;47.240;-1.546;2024-01-15T09:09:53;5.40;76.20
77985;DHT22;67177;47.240;-1.546;2024-01-15T09:12:19;5.40;76.20
77985;DHT22;67177;47.240;-1.546;2024-01-15T09:14:46;5.50;76.10
77985;DHT22;67177;47.240;-1.546;2024-01-15T09:17:12;5.60;76.00
77985;DHT22;67177;47.240;-1.546;2024-01-15T09:19:38;5.60;75.80
77985;DHT22;67177;47.240;-1.546;2024-01-15T09:22:07;5.70;75.80
77985;DHT22;67177;47.240;-1.546;2024-01-15T09:24:32;5.70;75.80
77985;DHT22;67177;47.240;-1.546;2024-01-15T09:26:58;5.80;75.70
77985;DHT22;67177;47.240;-1.546;2024-01-15T09:29:24;5.80;75.60
77985;DHT22;67177;47.240;-1.546;2024-01-15T09:31:52;5.80;75.20
77985;DHT22;67177;47.240;-1.546;2024-01-15T09:34:18;5.80;75.00
77985;DHT22;67177;47.240;-1.546;2024-01-15T09:36:44;5.80;75.10
77985;DHT22;67177;47.240;-1.546;2024-01-15T09:39:10;5.90;75.30
77985;DHT22;67177;47.240;-1.546;2024-01-15T09:41:39;5.80;75.20
77985;DHT22;67177;47.240;-1.546;2024-01-15T09:44:05;5.80;75.20
77985;DHT22;67177;47.240;-1.546;2024-01-15T09:46:34;5.80;75.50
77985;DHT22;67177;47.240;-1.546;2024-01-15T09:49:00;5.80;75.50
77985;DHT22;67177;47.240;-1.546;2024-01-15T09:51:31;5.90;75.50
77985;DHT22;67177;47.240;-1.546;2024-01-15T09:53:57;5.90;75.40
77985;DHT22;67177;47.240;-1.546;2024-01-15T09:56:23;5.90;75.30
77985;DHT22;67177;47.240;-1.546;2024-01-15T09:58:50;5.90;75.30
77985;DHT22;67177;47.240;-1.546;2024-01-15T10:01:20;5.80;75.10
77985;DHT22;67177;47.240;-1.546;2024-01-15T10:03:46;5.80;75.20
77985;DHT22;67177;47.240;-1.546;2024-01-15T10:06:15;5.80;75.20
77985;DHT22;67177;47.240;-1.546;2024-01-15T10:08:46;5.80;75.30
77985;DHT22;67177;47.240;-1.546;2024-01-15T10:11:13;5.70;75.20
77985;DHT22;67177;47.240;-1.546;2024-01-15T10:13:39;5.70;75.30
77985;DHT22;67177;47.240;-1.546;2024-01-15T10:16:05;5.80;75.30
77985;DHT22;67177;47.240;-1.546;2024-01-15T10:18:31;5.90;75.30
77985;DHT22;67177;47.240;-1.546;2024-01-15T10:20:57;6.00;75.20
77985;DHT22;67177;47.240;-1.546;2024-01-15T10:23:24;6.00;75.20
77985;DHT22;67177;47.240;-1.546;2024-01-15T10:25:49;6.00;75.20
77985;DHT22;67177;47.240;-1.546;2024-01-15T10:28:17;6.00;75.20
77985;DHT22;67177;47.240;-1.546;2024-01-15T10:30:44;6.00;75.30
77985;DHT22;67177;47.240;-1.546;2024-01-15T10:33:10;6.00;75.30
77985;DHT22;67177;47.240;-1.546;2024-01-15T10:35:37;6.10;75.30
77985;DHT22;67177;47.240;-1.546;2024-01-15T10:38:05;6.20;75.10
77985;DHT22;67177;47.240;-1.546;2024-01-15T10:40:31;6.10;75.10
77985;DHT22;67177;47.240;-1.546;2024-01-15T10:42:57;6.20;75.10
77985;DHT22;67177;47.240;-1.546;2024-01-15T10:45:23;6.10;75.00
77985;DHT22;67177;47.240;-1.546;2024-01-15T10:47:49;6.10;75.00
77985;DHT22;67177;47.240;-1.546;2024-01-15T10:50:15;6.20;75.00
77985;DHT22;67177;47.240;-1.546;2024-01-15T10:52:42;6.30;74.90
77985;DHT22;67177;47.240;-1.546;2024-01-15T10:55:09;6.40;74.90
77985;DHT22;67177;47.240;-1.546;2024-01-15T10:57:36;6.50;74.70
77985;DHT22;67177;47.240;-1.546;2024-01-15T11:00:03;6.50;74.70
77985;DHT22;67177;47.240;-1.546;2024-01-15T11:02:35;6.50;74.60
77985;DHT22;67177;47.240;-1.546;2024-01-15T11:05:01;6.40;74.50
77985;DHT22;67177;47.240;-1.546;2024-01-15T11:07:27;6.50;74.60
77985;DHT22;67177;47.240;-1.546;2024-01-15T11:09:55;6.50;74.70
77985;DHT22;67177;47.240;-1.546;2024-01-15T11:12:20;6.60;74.60
77985;DHT22;67177;47.240;-1.546;2024-01-15T11:14:48;6.60;74.60
77985;DHT22;67177;47.240;-1.546;2024-01-15T11:17:14;6.70;74.40
77985;DHT22;67177;47.240;-1.546;2024-01-15T11:19:45;6.70;74.20
77985;DHT22;67177;47.240;-1.546;2024-01-15T11:25:03;6.70;74.40
77985;DHT22;67177;47.240;-1.546;2024-01-15T11:27:45;6.80;74.50
77985;DHT22;67177;47.240;-1.546;2024-01-15T11:30:18;6.80;74.50
77985;DHT22;67177;47.240;-1.546;2024-01-15T11:32:46;6.90;74.60
77985;DHT22;67177;47.240;-1.546;2024-01-15T11:35:12;6.80;74.50
77985;DHT22;67177;47.240;-1.546;2024-01-15T11:38:08;6.80;74.60
77985;DHT22;67177;47.240;-1.546;2024-01-15T11:42:59;6.60;74.60
77985;DHT22;67177;47.240;-1.546;2024-01-15T11:45:25;6.70;74.80
77985;DHT22;67177;47.240;-1.546;2024-01-15T11:48:15;6.70;74.70
77985;DHT22;67177;47.240;-1.546;2024-01-15T11:50:51;6.60;74.60
77985;DHT22;67177;47.240;-1.546;2024-01-15T11:53:17;6.60;74.70
77985;DHT22;67177;47.240;-1.546;2024-01-15T11:55:45;6.60;74.80
77985;DHT22;67177;47.240;-1.546;2024-01-15T11:58:11;6.50;74.70
77985;DHT22;67177;47.240;-1.546;2024-01-15T12:00:48;6.40;74.90
77985;DHT22;67177;47.240;-1.546;2024-01-15T12:03:20;6.40;75.00
77985;DHT22;67177;47.240;-1.546;2024-01-15T12:05:45;6.40;74.90
77985;DHT22;67177;47.240;-1.546;2024-01-15T12:08:11;6.50;74.80
77985;DHT22;67177;47.240;-1.546;2024-01-15T12:10:38;6.70;74.70
77985;DHT22;67177;47.240;-1.546;2024-01-15T12:13:14;6.80;74.70
77985;DHT22;67177;47.240;-1.546;2024-01-15T12:15:41;6.80;74.40
77985;DHT22;67177;47.240;-1.546;2024-01-15T12:18:09;6.80;74.30
77985;DHT22;67177;47.240;-1.546;2024-01-15T12:20:35;6.90;74.00
77985;DHT22;67177;47.240;-1.546;2024-01-15T12:23:01;7.00;73.90
77985;DHT22;67177;47.240;-1.546;2024-01-15T12:25:30;7.20;73.90
77985;DHT22;67177;47.240;-1.546;2024-01-15T12:27:56;7.30;73.70
77985;DHT22;67177;47.240;-1.546;2024-01-15T12:30:22;7.40;73.20
77985;DHT22;67177;47.240;-1.546;2024-01-15T12:32:47;7.40;73.30
77985;DHT22;67177;47.240;-1.546;2024-01-15T12:35:14;7.40;73.00
77985;DHT22;67177;47.240;-1.546;2024-01-15T12:37:41;7.30;72.40
77985;DHT22;67177;47.240;-1.546;2024-01-15T12:40:08;7.30;72.60
77985;DHT22;67177;47.240;-1.546;2024-01-15T12:42:44;7.30;72.50
77985;DHT22;67177;47.240;-1.546;2024-01-15T12:45:11;7.30;72.50
77985;DHT22;67177;47.240;-1.546;2024-01-15T12:47:38;7.30;72.20
77985;DHT22;67177;47.240;-1.546;2024-01-15T12:50:10;7.30;72.30
77985;DHT22;67177;47.240;-1.546;2024-01-15T12:52:37;7.30;72.30
77985;DHT22;67177;47.240;-1.546;2024-01-15T12:55:09;7.30;72.30
77985;DHT22;67177;47.240;-1.546;2024-01-15T12:57:36;7.30;72.40
77985;DHT22;67177;47.240;-1.546;2024-01-15T13:00:03;7.40;72.50
77985;DHT22;67177;47.240;-1.546;2024-01-15T13:02:33;7.50;72.40
77985;DHT22;67177;47.240;-1.546;2024-01-15T13:04:59;7.50;72.20
77985;DHT22;67177;47.240;-1.546;2024-01-15T13:07:25;7.50;72.10
77985;DHT22;67177;47.240;-1.546;2024-01-15T13:09:50;7.50;71.60
77985;DHT22;67177;47.240;-1.546;2024-01-15T13:12:19;7.40;71.60
77985;DHT22;67177;47.240;-1.546;2024-01-15T13:14:45;7.30;71.60
77985;DHT22;67177;47.240;-1.546;2024-01-15T13:17:11;7.20;71.80
77985;DHT22;67177;47.240;-1.546;2024-01-15T13:19:37;7.20;71.50
77985;DHT22;67177;47.240;-1.546;2024-01-15T13:22:04;7.10;71.20
77985;DHT22;67177;47.240;-1.546;2024-01-15T13:24:32;7.10;71.40
77985;DHT22;67177;47.240;-1.546;2024-01-15T13:26:57;7.10;71.30
77985;DHT22;67177;47.240;-1.546;2024-01-15T13:29:23;7.00;71.30
77985;DHT22;67177;47.240;-1.546;2024-01-15T13:31:49;7.00;71.30
77985;DHT22;67177;47.240;-1.546;2024-01-15T13:34:15;7.10;71.20
77985;DHT22;67177;47.240;-1.546;2024-01-15T13:36:40;7.10;71.10
77985;DHT22;67177;47.240;-1.546;2024-01-15T13:39:06;7.20;71.10
77985;DHT22;67177;47.240;-1.546;2024-01-15T13:41:36;7.20;70.90
77985;DHT22;67177;47.240;-1.546;2024-01-15T13:44:01;7.30;71.00
77985;DHT22;67177;47.240;-1.546;2024-01-15T13:46:28;7.30;71.10
77985;DHT22;67177;47.240;-1.546;2024-01-15T13:48:55;7.30;70.90
77985;DHT22;67177;47.240;-1.546;2024-01-15T13:51:23;7.30;70.50
77985;DHT22;67177;47.240;-1.546;2024-01-15T13:53:50;7.20;70.60
77985;DHT22;67177;47.240;-1.546;2024-01-15T13:56:16;7.10;70.60
77985;DHT22;67177;47.240;-1.546;2024-01-15T13:58:42;7.00;70.70
77985;DHT22;67177;47.240;-1.546;2024-01-15T14:01:08;7.00;70.80
77985;DHT22;67177;47.240;-1.546;2024-01-15T14:03:34;6.90;71.00
77985;DHT22;67177;47.240;-1.546;2024-01-15T14:06:00;6.80;71.30
77985;DHT22;67177;47.240;-1.546;2024-01-15T14:08:29;6.70;71.30
77985;DHT22;67177;47.240;-1.546;2024-01-15T14:10:54;6.70;71.30
77985;DHT22;67177;47.240;-1.546;2024-01-15T14:13:22;6.60;71.30
77985;DHT22;67177;47.240;-1.546;2024-01-15T14:15:48;6.60;71.30
77985;DHT22;67177;47.240;-1.546;2024-01-15T14:18:16;6.50;70.90
77985;DHT22;67177;47.240;-1.546;2024-01-15T14:20:41;6.40;71.10
77985;DHT22;67177;47.240;-1.546;2024-01-15T14:23:07;6.40;71.10
77985;DHT22;67177;47.240;-1.546;2024-01-15T14:25:32;6.30;71.30
77985;DHT22;67177;47.240;-1.546;2024-01-15T14:27:58;6.40;71.20
77985;DHT22;67177;47.240;-1.546;2024-01-15T14:30:24;6.30;70.90
77985;DHT22;67177;47.240;-1.546;2024-01-15T14:32:50;6.30;70.70
77985;DHT22;67177;47.240;-1.546;2024-01-15T14:35:15;6.30;70.70
77985;DHT22;67177;47.240;-1.546;2024-01-15T14:37:41;6.20;70.50
77985;DHT22;67177;47.240;-1.546;2024-01-15T14:40:07;6.20;70.70
77985;DHT22;67177;47.240;-1.546;2024-01-15T14:42:36;6.20;70.70
77985;DHT22;67177;47.240;-1.546;2024-01-15T14:45:03;6.30;70.80
77985;DHT22;67177;47.240;-1.546;2024-01-15T14:47:30;6.20;70.20
77985;DHT22;67177;47.240;-1.546;2024-01-15T14:49:56;6.20;70.30
77985;DHT22;67177;47.240;-1.546;2024-01-15T14:52:22;6.20;70.30
77985;DHT22;67177;47.240;-1.546;2024-01-15T14:54:49;6.20;70.50
77985;DHT22;67177;47.240;-1.546;2024-01-15T14:57:14;6.20;70.50
77985;DHT22;67177;47.240;-1.546;2024-01-15T14:59:40;6.20;70.30
77985;DHT22;67177;47.240;-1.546;2024-01-15T15:02:06;6.10;70.20
77985;DHT22;67177;47.240;-1.546;2024-01-15T15:04:32;6.10;70.00
77985;DHT22;67177;47.240;-1.546;2024-01-15T15:06:58;6.10;70.10
77985;DHT22;67177;47.240;-1.546;2024-01-15T15:09:23;6.10;70.10
77985;DHT22;67177;47.240;-1.546;2024-01-15T15:11:49;6.10;70.20
77985;DHT22;67177;47.240;-1.546;2024-01-15T15:14:14;6.00;70.10
77985;DHT22;67177;47.240;-1.546;2024-01-15T15:16:40;6.00;70.10
77985;DHT22;67177;47.240;-1.546;2024-01-15T15:19:06;6.00;70.00
77985;DHT22;67177;47.240;-1.546;2024-01-15T15:21:31;6.00;70.10
77985;DHT22;67177;47.240;-1.546;2024-01-15T15:23:57;6.00;70.10
77985;DHT22;67177;47.240;-1.546;2024-01-15T15:26:23;6.00;70.10
77985;DHT22;67177;47.240;-1.546;2024-01-15T15:28:48;6.00;70.10
77985;DHT22;67177;47.240;-1.546;2024-01-15T15:31:14;6.10;70.10